createdAt,value
2019-05-07T00:00:27.573Z,7.63
2019-05-07T00:01:28.214Z,7.54
2019-05-07T00:02:27.790Z,7.58
2019-05-07T00:03:27.785Z,7.56
2019-05-07T00:04:27.786Z,7.56
2019-05-07T00:05:27.801Z,7.6
2019-05-07T00:06:28.013Z,7.45
2019-05-07T00:07:27.759Z,7.5
2019-05-07T00:08:27.846Z,7.53
2019-05-07T00:09:27.895Z,7.56
2019-05-07T00:10:29.500Z,7.5
2019-05-07T00:11:27.762Z,7.51
2019-05-07T00:12:27.942Z,7.54
2019-05-07T00:13:27.222Z,7.53
2019-05-07T00:14:27.998Z,7.5
2019-05-07T00:15:27.847Z,7.51
2019-05-07T00:16:27.698Z,7.56
2019-05-07T00:17:27.748Z,7.5
2019-05-07T00:18:27.870Z,7.51
2019-05-07T00:19:27.748Z,7.5
2019-05-07T00:20:27.727Z,7.48
2019-05-07T00:21:28.027Z,7.51
2019-05-07T00:22:27.427Z,7.43
2019-05-07T00:23:28.081Z,7.5
2019-05-07T00:24:27.384Z,7.51
2019-05-07T00:25:27.515Z,7.38
2019-05-07T00:26:27.616Z,7.33
2019-05-07T00:27:27.807Z,7.23
2019-05-07T00:28:28.123Z,7.2
2019-05-07T00:29:27.809Z,7.1
2019-05-07T00:30:27.763Z,7.15
2019-05-07T00:31:28.254Z,7.07
2019-05-07T00:32:27.747Z,7.15
2019-05-07T00:33:27.769Z,7.18
2019-05-07T00:34:27.718Z,7.11
2019-05-07T00:35:27.727Z,7.02
2019-05-07T00:36:28.044Z,7.05
2019-05-07T00:37:27.713Z,6.96
2019-05-07T00:38:27.761Z,6.84
2019-05-07T00:39:27.716Z,6.87
2019-05-07T00:40:27.736Z,6.96
2019-05-07T00:41:27.912Z,6.87
2019-05-07T00:42:27.463Z,6.93
2019-05-07T00:43:27.601Z,6.89
2019-05-07T00:44:27.481Z,6.87
2019-05-07T00:45:28.682Z,6.88
2019-05-07T00:46:26.961Z,6.72
2019-05-07T00:47:27.451Z,6.87
2019-05-07T00:48:28.066Z,6.85
2019-05-07T00:49:27.187Z,6.78
2019-05-07T00:50:27.434Z,6.82
2019-05-07T00:51:27.255Z,6.87
2019-05-07T00:52:27.200Z,6.82
2019-05-07T00:53:29.227Z,6.87
2019-05-07T00:54:27.926Z,6.87
2019-05-07T00:55:27.353Z,6.77
2019-05-07T00:56:26.885Z,6.75
2019-05-07T00:57:27.758Z,6.87
2019-05-07T00:58:32.082Z,6.82
2019-05-07T00:59:27.471Z,6.75
2019-05-07T01:00:27.105Z,6.77
2019-05-07T01:01:27.655Z,6.78
2019-05-07T01:02:26.837Z,6.85
2019-05-07T01:03:27.076Z,6.82
2019-05-07T01:04:27.563Z,6.82
2019-05-07T01:05:27.952Z,6.79
2019-05-07T01:06:32.830Z,6.72
2019-05-07T01:07:27.828Z,6.66
2019-05-07T01:08:27.558Z,6.67
2019-05-07T01:09:27.787Z,6.6
2019-05-07T01:10:27.263Z,6.6
2019-05-07T01:11:27.574Z,6.63
2019-05-07T01:12:26.753Z,6.59
2019-05-07T01:13:28.330Z,6.51
2019-05-07T01:14:27.754Z,6.48
2019-05-07T01:15:36.774Z,6.62
2019-05-07T01:16:27.231Z,6.52
2019-05-07T01:17:27.407Z,6.62
2019-05-07T01:18:27.888Z,6.57
2019-05-07T01:19:26.949Z,6.6
2019-05-07T01:20:26.701Z,6.54
2019-05-07T01:21:27.332Z,6.51
2019-05-07T01:22:27.231Z,6.51
2019-05-07T01:23:27.792Z,6.54
2019-05-07T01:24:28.161Z,6.56
2019-05-07T01:25:26.654Z,6.54
2019-05-07T01:26:27.148Z,6.57
2019-05-07T01:27:27.548Z,6.63
2019-05-07T01:28:27.366Z,6.66
2019-05-07T01:29:27.905Z,6.67
2019-05-07T01:30:27.708Z,6.57
2019-05-07T01:31:27.113Z,6.56
2019-05-07T01:32:27.091Z,6.64
2019-05-07T01:33:27.061Z,6.59
2019-05-07T01:34:27.634Z,6.52
2019-05-07T01:35:27.264Z,6.59
2019-05-07T01:36:27.456Z,6.59
2019-05-07T01:37:27.949Z,6.57
2019-05-07T01:38:27.571Z,6.52
2019-05-07T01:39:28.026Z,6.48
2019-05-07T01:40:27.369Z,6.56
2019-05-07T01:41:27.904Z,6.51
2019-05-07T01:42:27.078Z,6.59
2019-05-07T01:43:27.653Z,6.57
2019-05-07T01:44:27.037Z,6.54
2019-05-07T01:45:42.989Z,6.51
2019-05-07T01:46:28.922Z,6.56
2019-05-07T01:47:28.345Z,6.63
2019-05-07T01:48:27.855Z,6.64
2019-05-07T01:49:28.888Z,6.62
2019-05-07T01:50:27.156Z,6.6
2019-05-07T01:51:27.100Z,6.59
2019-05-07T01:52:27.274Z,6.59
2019-05-07T01:53:27.632Z,6.63
2019-05-07T01:54:30.064Z,6.54
2019-05-07T01:55:27.242Z,6.64
2019-05-07T01:56:27.508Z,6.52
2019-05-07T01:57:27.732Z,6.59
2019-05-07T01:58:27.024Z,6.42
2019-05-07T01:59:27.170Z,6.48
2019-05-07T02:00:27.301Z,6.49
2019-05-07T02:01:27.046Z,6.46
2019-05-07T02:02:27.503Z,6.48
2019-05-07T02:03:27.422Z,6.49
2019-05-07T02:04:27.264Z,6.46
2019-05-07T02:05:27.444Z,6.48
2019-05-07T02:06:26.678Z,6.48
2019-05-07T02:07:27.292Z,6.42
2019-05-07T02:08:27.014Z,6.48
2019-05-07T02:09:27.106Z,6.44
2019-05-07T02:10:27.073Z,6.45
2019-05-07T02:11:26.518Z,6.49
2019-05-07T02:12:27.081Z,6.46
2019-05-07T02:13:27.182Z,6.42
2019-05-07T02:14:26.506Z,6.46
2019-05-07T02:15:27.467Z,6.51
2019-05-07T02:16:26.255Z,6.45
2019-05-07T02:17:27.418Z,6.45
2019-05-07T02:18:26.709Z,6.51
2019-05-07T02:19:26.839Z,6.45
2019-05-07T02:20:27.145Z,6.42
2019-05-07T02:21:26.712Z,6.45
2019-05-07T02:22:27.492Z,6.36
2019-05-07T02:23:27.016Z,6.49
2019-05-07T02:24:26.529Z,6.45
2019-05-07T02:25:26.540Z,6.51
2019-05-07T02:26:26.963Z,6.42
2019-05-07T02:27:26.725Z,6.44
2019-05-07T02:28:26.865Z,6.31
2019-05-07T02:29:27.360Z,6.49
2019-05-07T02:30:28.746Z,6.44
2019-05-07T02:31:27.873Z,6.44
2019-05-07T02:32:28.952Z,6.48
2019-05-07T02:33:27.600Z,6.52
2019-05-07T02:34:28.337Z,6.59
2019-05-07T02:35:28.109Z,6.54
2019-05-07T02:36:28.703Z,6.51
2019-05-07T02:37:53.181Z,6.42
2019-05-07T02:38:27.393Z,6.54
2019-05-07T02:39:28.980Z,6.54
2019-05-07T02:40:27.596Z,6.51
2019-05-07T02:41:28.001Z,6.52
2019-05-07T02:42:28.852Z,6.44
2019-05-07T02:43:27.694Z,6.49
2019-05-07T02:44:27.849Z,6.48
2019-05-07T02:45:28.635Z,6.45
2019-05-07T02:46:38.718Z,6.51
2019-05-07T02:47:28.275Z,6.42
2019-05-07T02:48:28.077Z,6.49
2019-05-07T02:49:28.402Z,6.44
2019-05-07T02:50:27.439Z,6.48
2019-05-07T02:51:28.883Z,6.51
2019-05-07T02:52:27.611Z,6.51
2019-05-07T02:53:27.418Z,6.57
2019-05-07T02:54:29.174Z,6.56
2019-05-07T02:55:28.107Z,6.59
2019-05-07T02:56:28.597Z,6.56
2019-05-07T02:57:28.734Z,6.51
2019-05-07T02:58:28.946Z,6.54
2019-05-07T02:59:28.270Z,6.63
2019-05-07T03:00:29.129Z,6.59
2019-05-07T03:01:27.096Z,6.56
2019-05-07T03:02:29.024Z,6.57
2019-05-07T03:03:29.235Z,6.51
2019-05-07T03:04:33.088Z,6.45
2019-05-07T03:05:27.986Z,6.44
2019-05-07T03:06:27.980Z,6.35
2019-05-07T03:07:28.792Z,6.36
2019-05-07T03:08:33.017Z,6.42
2019-05-07T03:09:27.388Z,6.31
2019-05-07T03:10:28.296Z,6.41
2019-05-07T03:11:27.752Z,6.26
2019-05-07T03:12:28.646Z,6.26
2019-05-07T03:13:28.461Z,6.22
2019-05-07T03:14:28.062Z,6.39
2019-05-07T03:15:28.818Z,6.36
2019-05-07T03:16:53.514Z,6.44
2019-05-07T03:17:29.286Z,6.46
2019-05-07T03:18:27.907Z,6.41
2019-05-07T03:19:28.877Z,6.49
2019-05-07T03:20:27.812Z,6.45
2019-05-07T03:21:28.478Z,6.42
2019-05-07T03:22:28.134Z,6.45
2019-05-07T03:23:27.463Z,6.39
2019-05-07T03:24:27.664Z,6.28
2019-05-07T03:25:27.485Z,6.26
2019-05-07T03:26:27.999Z,6.27
2019-05-07T03:27:28.144Z,6.2
2019-05-07T03:28:27.791Z,6.24
2019-05-07T03:29:28.340Z,6.27
2019-05-07T03:30:35.339Z,6.26
2019-05-07T03:31:35.908Z,6.2
2019-05-07T03:32:37.697Z,6.3
2019-05-07T03:33:36.080Z,6.35
2019-05-07T03:34:36.082Z,6.38
2019-05-07T03:35:36.967Z,6.39
2019-05-07T03:36:35.024Z,6.49
2019-05-07T03:37:32.068Z,6.42
2019-05-07T03:38:27.789Z,6.46
2019-05-07T03:39:28.735Z,6.44
2019-05-07T03:40:27.746Z,6.51
2019-05-07T03:41:27.633Z,6.45
2019-05-07T03:42:28.500Z,6.56
2019-05-07T03:43:27.727Z,6.52
2019-05-07T03:44:28.777Z,6.51
2019-05-07T03:45:27.698Z,6.56
2019-05-07T03:46:28.412Z,6.56
2019-05-07T03:47:28.779Z,6.64
2019-05-07T03:48:28.800Z,6.57
2019-05-07T03:49:27.120Z,6.66
2019-05-07T03:50:27.928Z,6.59
2019-05-07T03:51:28.340Z,6.64
2019-05-07T03:52:29.155Z,6.57
2019-05-07T03:53:27.849Z,6.6
2019-05-07T03:54:28.438Z,6.63
2019-05-07T03:55:33.162Z,6.69
2019-05-07T03:56:28.302Z,6.66
2019-05-07T03:57:28.448Z,6.67
2019-05-07T03:58:28.538Z,6.67
2019-05-07T03:59:28.103Z,6.67
2019-05-07T04:00:28.726Z,6.67
2019-05-07T04:01:28.513Z,6.63
2019-05-07T04:02:28.678Z,6.67
2019-05-07T04:03:29.434Z,6.64
2019-05-07T04:04:27.587Z,6.72
2019-05-07T04:05:27.831Z,6.6
2019-05-07T04:06:27.789Z,6.66
2019-05-07T04:07:28.212Z,6.51
2019-05-07T04:08:28.463Z,6.57
2019-05-07T04:09:28.312Z,6.49
2019-05-07T04:10:28.117Z,6.48
2019-05-07T04:11:27.793Z,6.45
2019-05-07T04:12:28.914Z,6.35
2019-05-07T04:13:28.515Z,6.42
2019-05-07T04:14:27.967Z,6.45
2019-05-07T04:15:27.913Z,6.41
2019-05-07T04:16:28.339Z,6.46
2019-05-07T04:17:33.572Z,6.57
2019-05-07T04:18:28.625Z,6.56
2019-05-07T04:19:28.011Z,6.52
2019-05-07T04:20:28.707Z,6.57
2019-05-07T04:21:27.797Z,6.64
2019-05-07T04:22:34.177Z,6.7
2019-05-07T04:23:28.236Z,6.66
2019-05-07T04:24:28.306Z,6.67
2019-05-07T04:25:28.421Z,6.7
2019-05-07T04:26:28.132Z,6.69
2019-05-07T04:27:28.523Z,6.74
2019-05-07T04:28:28.535Z,6.72
2019-05-07T04:29:27.759Z,6.74
2019-05-07T04:30:27.885Z,6.7
2019-05-07T04:31:27.907Z,6.85
2019-05-07T04:32:27.970Z,6.93
2019-05-07T04:33:28.169Z,6.84
2019-05-07T04:34:28.600Z,6.92
2019-05-07T04:35:26.905Z,6.88
2019-05-07T04:36:28.034Z,6.89
2019-05-07T04:37:28.696Z,6.92
2019-05-07T04:38:28.580Z,6.88
2019-05-07T04:39:27.927Z,6.89
2019-05-07T04:40:28.511Z,7.03
2019-05-07T04:41:28.269Z,7
2019-05-07T04:42:29.092Z,6.99
2019-05-07T04:43:27.990Z,7.11
2019-05-07T04:44:27.976Z,7.13
2019-05-07T04:45:27.731Z,7.18
2019-05-07T04:46:27.941Z,7.25
2019-05-07T04:47:49.407Z,7.32
2019-05-07T04:48:27.740Z,7.31
2019-05-07T04:49:28.315Z,7.25
2019-05-07T04:50:49.330Z,7.15
2019-05-07T04:51:27.741Z,7.17
2019-05-07T04:52:28.356Z,7.17
2019-05-07T04:53:28.305Z,7.17
2019-05-07T04:54:28.079Z,7.15
2019-05-07T04:55:27.344Z,7.07
2019-05-07T04:56:28.322Z,7.18
2019-05-07T04:57:28.424Z,7.21
2019-05-07T04:58:29.274Z,7.05
2019-05-07T04:59:28.436Z,7.11
2019-05-07T05:00:27.792Z,7.14
2019-05-07T05:01:28.248Z,7.06
2019-05-07T05:02:27.319Z,7.06
2019-05-07T05:03:28.397Z,7.14
2019-05-07T05:04:37.451Z,7.1
2019-05-07T05:05:28.271Z,7.18
2019-05-07T05:06:26.695Z,7.14
2019-05-07T05:07:27.364Z,7.17
2019-05-07T05:08:27.978Z,7.23
2019-05-07T05:09:27.995Z,7.29
2019-05-07T05:10:28.070Z,7.2
2019-05-07T05:11:28.362Z,7.13
2019-05-07T05:12:27.355Z,7.14
2019-05-07T05:13:28.044Z,7.11
2019-05-07T05:14:27.368Z,7.06
2019-05-07T05:15:26.768Z,7.03
2019-05-07T05:16:26.695Z,7.17
2019-05-07T05:17:27.181Z,7.29
2019-05-07T05:18:26.513Z,7.42
2019-05-07T05:19:25.528Z,7.39
2019-05-07T05:20:26.782Z,7.69
2019-05-07T05:21:27.283Z,8.01
2019-05-07T05:22:26.999Z,8.31
2019-05-07T05:23:27.511Z,8.6
2019-05-07T05:24:27.017Z,8.88
2019-05-07T05:25:27.238Z,9.06
2019-05-07T05:26:26.476Z,8.99
2019-05-07T05:27:29.879Z,8.94
2019-05-07T05:28:26.202Z,8.97
2019-05-07T05:29:27.517Z,8.97
2019-05-07T05:30:26.788Z,8.88
2019-05-07T05:31:27.119Z,8.95
2019-05-07T05:32:27.204Z,8.89
2019-05-07T05:33:25.705Z,8.84
2019-05-07T05:34:26.626Z,8.89
2019-05-07T05:35:27.031Z,8.94
2019-05-07T05:36:26.542Z,9
2019-05-07T05:37:27.376Z,9.18
2019-05-07T05:38:26.992Z,9.19
2019-05-07T05:39:27.204Z,9.31
2019-05-07T05:40:27.455Z,9.4
2019-05-07T05:41:27.137Z,9.4
2019-05-07T05:42:26.757Z,9.58
2019-05-07T05:43:27.188Z,9.58
2019-05-07T05:44:27.236Z,9.39
2019-05-07T05:45:26.740Z,9.37
2019-05-07T05:46:27.406Z,9.37
2019-05-07T05:47:26.528Z,9.32
2019-05-07T05:48:27.095Z,9.29
2019-05-07T05:49:25.507Z,9.37
2019-05-07T05:50:26.415Z,9.25
2019-05-07T05:51:27.244Z,9.18
2019-05-07T05:52:26.630Z,9.26
2019-05-07T05:53:26.443Z,9.32
2019-05-07T05:54:27.052Z,9.39
2019-05-07T05:55:27.158Z,9.56
2019-05-07T05:56:27.610Z,9.73
2019-05-07T05:57:25.475Z,10.1
2019-05-07T05:58:26.651Z,10.38
2019-05-07T05:59:52.563Z,10.67
2019-05-07T06:00:26.974Z,10.67
2019-05-07T06:01:27.109Z,10.74
2019-05-07T06:02:27.545Z,10.76
2019-05-07T06:03:27.416Z,10.82
2019-05-07T06:04:27.017Z,10.82
2019-05-07T06:05:26.944Z,11.17
2019-05-07T06:06:26.768Z,11.37
2019-05-07T06:07:26.906Z,11.57
2019-05-07T06:08:26.466Z,11.87
2019-05-07T06:09:26.549Z,12.36
2019-05-07T06:10:27.142Z,12.7
2019-05-07T06:11:26.432Z,12.83
2019-05-07T06:12:26.713Z,13.09
2019-05-07T06:13:25.526Z,13.23
2019-05-07T06:14:26.968Z,13.27
2019-05-07T06:15:27.052Z,13.46
2019-05-07T06:16:26.624Z,13.78
2019-05-07T06:17:26.902Z,13.97
2019-05-07T06:18:28.247Z,14.05
2019-05-07T06:19:26.802Z,14.29
2019-05-07T06:20:27.105Z,14.51
2019-05-07T06:21:26.406Z,14.47
2019-05-07T06:22:26.786Z,14.4
2019-05-07T06:23:27.216Z,14.17
2019-05-07T06:24:27.405Z,13.97
2019-05-07T06:25:29.323Z,13.89
2019-05-07T06:26:27.442Z,13.7
2019-05-07T06:27:25.384Z,13.38
2019-05-07T06:28:26.651Z,13.2
2019-05-07T06:29:27.722Z,13
2019-05-07T06:30:27.174Z,12.79
2019-05-07T06:31:26.758Z,12.61
2019-05-07T06:32:25.205Z,12.53
2019-05-07T06:33:25.575Z,12.49
2019-05-07T06:34:26.796Z,12.46
2019-05-07T06:35:25.478Z,12.45
2019-05-07T06:36:26.947Z,12.31
2019-05-07T06:37:26.987Z,12.2
2019-05-07T06:38:26.871Z,12.22
2019-05-07T06:39:26.971Z,12.25
2019-05-07T06:40:32.549Z,12.21
2019-05-07T06:41:25.146Z,12.29
2019-05-07T06:42:26.713Z,12.4
2019-05-07T06:43:26.713Z,12.4
2019-05-07T06:44:27.151Z,12.29
2019-05-07T06:45:25.014Z,12.35
2019-05-07T06:46:25.650Z,12.31
2019-05-07T06:47:26.718Z,12.17
2019-05-07T06:48:46.448Z,12
2019-05-07T06:49:27.040Z,11.97
2019-05-07T06:50:26.675Z,11.81
2019-05-07T06:51:26.932Z,11.73
2019-05-07T06:52:27.182Z,11.75
2019-05-07T06:53:26.990Z,11.75
2019-05-07T06:54:27.340Z,11.87
2019-05-07T06:55:25.084Z,11.94
2019-05-07T06:56:25.525Z,12.15
2019-05-07T06:57:26.988Z,12.2
2019-05-07T06:58:26.492Z,12.35
2019-05-07T06:59:27.183Z,12.46
2019-05-07T07:00:27.090Z,12.58
2019-05-07T07:01:25.302Z,12.6
2019-05-07T07:02:27.408Z,12.64
2019-05-07T07:03:26.774Z,12.55
2019-05-07T07:04:27.173Z,12.65
2019-05-07T07:05:32.824Z,12.65
2019-05-07T07:06:25.434Z,12.75
2019-05-07T07:07:41.870Z,12.87
2019-05-07T07:08:25.537Z,12.94
2019-05-07T07:09:26.732Z,13.03
2019-05-07T07:10:25.091Z,12.95
2019-05-07T07:11:27.214Z,12.94
2019-05-07T07:12:28.554Z,12.8
2019-05-07T07:13:25.373Z,12.82
2019-05-07T07:14:25.259Z,12.82
2019-05-07T07:15:25.669Z,12.79
2019-05-07T07:16:25.059Z,12.76
2019-05-07T07:17:26.831Z,12.68
2019-05-07T07:18:25.545Z,12.65
2019-05-07T07:19:25.780Z,12.65
2019-05-07T07:20:26.479Z,12.68
2019-05-07T07:21:26.825Z,12.78
2019-05-07T07:22:26.779Z,12.78
2019-05-07T07:23:27.150Z,12.82
2019-05-07T07:24:26.648Z,12.85
2019-05-07T07:25:25.420Z,13.05
2019-05-07T07:26:26.950Z,13.04
2019-05-07T07:27:27.326Z,13.01
2019-05-07T07:28:26.547Z,13.16
2019-05-07T07:29:26.579Z,13.2
2019-05-07T07:30:26.650Z,13.35
2019-05-07T07:31:28.733Z,13.41
2019-05-07T07:32:27.390Z,13.44
2019-05-07T07:33:26.990Z,13.56
2019-05-07T07:34:27.448Z,13.72
2019-05-07T07:35:24.772Z,13.56
2019-05-07T07:36:26.762Z,13.56
2019-05-07T07:37:25.367Z,13.59
2019-05-07T07:38:27.168Z,13.52
2019-05-07T07:39:26.807Z,13.67
2019-05-07T07:40:27.101Z,13.81
2019-05-07T07:41:27.012Z,13.97
2019-05-07T07:42:25.111Z,14.12
2019-05-07T07:43:26.406Z,14.23
2019-05-07T07:44:27.071Z,14.33
2019-05-07T07:45:25.533Z,14.33
2019-05-07T07:46:26.964Z,14.35
2019-05-07T07:47:26.850Z,14.36
2019-05-07T07:48:32.036Z,14.35
2019-05-07T07:49:26.765Z,14.36
2019-05-07T07:50:27.183Z,14.59
2019-05-07T07:51:47.218Z,14.88
2019-05-07T07:52:25.154Z,14.96
2019-05-07T07:53:27.198Z,15
2019-05-07T07:54:27.395Z,15.06
2019-05-07T07:55:27.010Z,15.28
2019-05-07T07:56:25.542Z,15.36
2019-05-07T07:57:26.123Z,15.57
2019-05-07T07:58:26.923Z,15.62
2019-05-07T07:59:26.666Z,15.86
2019-05-07T08:00:26.157Z,16.1
2019-05-07T08:01:25.027Z,16.31
2019-05-07T08:02:25.470Z,16.47
2019-05-07T08:03:27.092Z,16.66
2019-05-07T08:04:25.362Z,16.75
2019-05-07T08:05:26.767Z,17.15
2019-05-07T08:06:25.031Z,17.38
2019-05-07T08:07:25.145Z,17.85
2019-05-07T08:08:26.763Z,18.01
2019-05-07T08:09:28.746Z,18.08
2019-05-07T08:10:26.621Z,17.89
2019-05-07T08:11:26.554Z,18.23
2019-05-07T08:12:26.368Z,17.92
2019-05-07T08:13:25.384Z,17.92
2019-05-07T08:14:26.763Z,17.95
2019-05-07T08:15:28.909Z,17.74
2019-05-07T08:16:26.543Z,17.7
2019-05-07T08:17:26.838Z,17.48
2019-05-07T08:18:26.845Z,17.44
2019-05-07T08:19:28.692Z,17.38
2019-05-07T08:20:27.015Z,17.16
2019-05-07T08:21:26.876Z,17.14
2019-05-07T08:22:27.053Z,17.44
2019-05-07T08:23:25.121Z,17.67
2019-05-07T08:24:25.019Z,18.07
2019-05-07T08:25:26.378Z,18.44
2019-05-07T08:26:26.776Z,18.38
2019-05-07T08:27:26.652Z,18.34
2019-05-07T08:28:27.876Z,18.31
2019-05-07T08:29:26.960Z,18.38
2019-05-07T08:30:26.958Z,18.63
2019-05-07T08:31:25.063Z,18.95
2019-05-07T08:32:26.773Z,19.16
2019-05-07T08:33:27.166Z,19.27
2019-05-07T08:34:26.675Z,19.15
2019-05-07T08:35:26.788Z,18.73
2019-05-07T08:36:27.399Z,18.62
2019-05-07T08:37:26.910Z,18.56
2019-05-07T08:38:29.634Z,18.68
2019-05-07T08:39:29.309Z,18.68
2019-05-07T08:40:26.582Z,18.5
2019-05-07T08:41:27.022Z,18.22
2019-05-07T08:42:25.358Z,17.82
2019-05-07T08:43:26.454Z,17.2
2019-05-07T08:44:26.819Z,16.75
2019-05-07T08:45:28.806Z,16.23
2019-05-07T08:46:27.075Z,15.72
2019-05-07T08:47:25.037Z,15.46
2019-05-07T08:48:26.239Z,15.31
2019-05-07T08:49:43.289Z,15.27
2019-05-07T08:50:26.740Z,15.21
2019-05-07T08:51:26.848Z,15.28
2019-05-07T08:52:28.590Z,15.42
2019-05-07T08:53:26.954Z,15.37
2019-05-07T08:54:24.862Z,15.28
2019-05-07T08:55:26.357Z,15.28
2019-05-07T08:56:26.975Z,15.18
2019-05-07T08:57:27.263Z,15.17
2019-05-07T08:58:26.631Z,15.06
2019-05-07T08:59:26.858Z,14.88
2019-05-07T09:00:26.874Z,14.72
2019-05-07T09:01:26.381Z,14.72
2019-05-07T09:02:26.885Z,14.63
2019-05-07T09:03:29.397Z,14.55
2019-05-07T09:04:26.790Z,14.54
2019-05-07T09:05:26.857Z,14.45
2019-05-07T09:06:26.816Z,14.45
2019-05-07T09:07:26.245Z,14.51
2019-05-07T09:08:26.339Z,14.6
2019-05-07T09:09:26.799Z,14.68
2019-05-07T09:10:26.680Z,14.55
2019-05-07T09:11:25.464Z,14.62
2019-05-07T09:12:25.233Z,14.78
2019-05-07T09:13:25.047Z,14.81
2019-05-07T09:14:28.316Z,14.85
2019-05-07T09:15:24.896Z,14.66
2019-05-07T09:16:25.739Z,14.59
2019-05-07T09:17:25.222Z,14.37
2019-05-07T09:18:25.401Z,14.2
2019-05-07T09:19:26.527Z,14.11
2019-05-07T09:20:25.342Z,14.17
2019-05-07T09:21:25.180Z,14.18
2019-05-07T09:22:25.323Z,14.17
2019-05-07T09:23:27.068Z,14.23
2019-05-07T09:24:26.979Z,14.28
2019-05-07T09:25:27.073Z,14.22
2019-05-07T09:26:26.606Z,14.15
2019-05-07T09:27:27.021Z,14.17
2019-05-07T09:28:26.741Z,14.08
2019-05-07T09:29:26.918Z,14
2019-05-07T09:30:28.480Z,13.99
2019-05-07T09:31:25.135Z,14.1
2019-05-07T09:32:26.978Z,14.12
2019-05-07T09:33:24.859Z,14.25
2019-05-07T09:34:26.973Z,14.36
2019-05-07T09:35:26.488Z,14.3
2019-05-07T09:36:25.249Z,14.3
2019-05-07T09:37:24.859Z,14.28
2019-05-07T09:38:26.821Z,14.17
2019-05-07T09:39:26.620Z,14.03
2019-05-07T09:40:26.307Z,13.93
2019-05-07T09:41:26.874Z,13.96
2019-05-07T09:42:27.105Z,13.92
2019-05-07T09:43:26.505Z,14.1
2019-05-07T09:44:26.872Z,14.18
2019-05-07T09:45:27.194Z,14.08
2019-05-07T09:46:27.447Z,14.12
2019-05-07T09:47:26.496Z,14.33
2019-05-07T09:48:26.887Z,14.33
2019-05-07T09:49:26.768Z,14.32
2019-05-07T09:50:26.604Z,14.62
2019-05-07T09:51:25.083Z,14.85
2019-05-07T09:52:25.348Z,15.06
2019-05-07T09:53:25.050Z,15.36
2019-05-07T09:54:25.325Z,15.59
2019-05-07T09:55:25.530Z,15.52
2019-05-07T09:56:25.387Z,15.72
2019-05-07T09:57:37.632Z,15.92
2019-05-07T09:58:42.547Z,16.13
2019-05-07T09:59:26.406Z,16.33
2019-05-07T10:00:24.859Z,16.5
2019-05-07T10:01:26.143Z,16.74
2019-05-07T10:02:25.246Z,16.83
2019-05-07T10:03:25.242Z,16.91
2019-05-07T10:04:26.948Z,16.86
2019-05-07T10:05:24.345Z,16.86
2019-05-07T10:06:25.172Z,16.54
2019-05-07T10:07:27.185Z,16.17
2019-05-07T10:08:24.599Z,15.98
2019-05-07T10:09:27.052Z,15.8
2019-05-07T10:10:26.819Z,15.8
2019-05-07T10:11:27.248Z,15.86
2019-05-07T10:12:24.606Z,16.01
2019-05-07T10:13:24.978Z,16.08
2019-05-07T10:14:27.135Z,16.16
2019-05-07T10:15:24.745Z,16.02
2019-05-07T10:16:24.342Z,15.84
2019-05-07T10:17:26.873Z,15.8
2019-05-07T10:18:25.307Z,15.75
2019-05-07T10:19:27.005Z,15.67
2019-05-07T10:20:27.509Z,15.58
2019-05-07T10:21:26.911Z,15.55
2019-05-07T10:22:25.239Z,15.46
2019-05-07T10:23:27.548Z,15.46
2019-05-07T10:24:26.793Z,15.42
2019-05-07T10:25:26.736Z,15.4
2019-05-07T10:26:25.064Z,15.42
2019-05-07T10:27:26.382Z,15.17
2019-05-07T10:28:25.199Z,15.19
2019-05-07T10:29:24.899Z,14.99
2019-05-07T10:30:26.679Z,15.06
2019-05-07T10:31:27.131Z,15.17
2019-05-07T10:32:24.831Z,15.29
2019-05-07T10:33:25.360Z,15.29
2019-05-07T10:34:25.300Z,15.46
2019-05-07T10:35:25.420Z,15.65
2019-05-07T10:36:25.274Z,15.72
2019-05-07T10:37:24.382Z,15.79
2019-05-07T10:38:26.182Z,15.98
2019-05-07T10:39:26.283Z,16.01
2019-05-07T10:40:27.134Z,16.1
2019-05-07T10:41:26.865Z,16
2019-05-07T10:42:24.899Z,16.1
2019-05-07T10:43:26.963Z,16.12
2019-05-07T10:44:25.312Z,16.16
2019-05-07T10:45:26.193Z,16.16
2019-05-07T10:46:24.855Z,15.86
2019-05-07T10:47:26.993Z,15.64
2019-05-07T10:48:26.802Z,15.42
2019-05-07T10:49:25.063Z,15.24
2019-05-07T10:50:42.491Z,15.18
2019-05-07T10:51:26.384Z,15.03
2019-05-07T10:52:25.258Z,14.97
2019-05-07T10:53:25.420Z,14.94
2019-05-07T10:54:26.647Z,14.7
2019-05-07T10:55:27.002Z,14.63
2019-05-07T10:56:27.067Z,14.55
2019-05-07T10:57:27.048Z,14.47
2019-05-07T10:58:24.850Z,14.25
2019-05-07T10:59:27.238Z,14.22
2019-05-07T11:00:24.996Z,14.11
2019-05-07T11:01:27.189Z,14.11
2019-05-07T11:02:26.483Z,14.17
2019-05-07T11:03:26.492Z,14.41
2019-05-07T11:04:39.215Z,14.66
2019-05-07T11:05:26.414Z,15.03
2019-05-07T11:06:26.837Z,15.33
2019-05-07T11:07:26.940Z,15.65
2019-05-07T11:08:28.317Z,15.94
2019-05-07T11:09:26.873Z,16.29
2019-05-07T11:10:26.729Z,16.51
2019-05-07T11:11:24.840Z,16.5
2019-05-07T11:12:25.407Z,16.58
2019-05-07T11:13:26.705Z,16.5
2019-05-07T11:14:26.567Z,16.56
2019-05-07T11:15:26.660Z,16.42
2019-05-07T11:16:26.617Z,16.31
2019-05-07T11:17:27.144Z,16.16
2019-05-07T11:18:26.634Z,15.97
2019-05-07T11:19:26.601Z,15.94
2019-05-07T11:20:25.077Z,15.83
2019-05-07T11:21:26.682Z,15.73
2019-05-07T11:22:26.871Z,15.68
2019-05-07T11:23:26.709Z,15.65
2019-05-07T11:24:24.839Z,15.61
2019-05-07T11:25:26.990Z,15.62
2019-05-07T11:26:26.973Z,15.64
2019-05-07T11:27:27.294Z,15.65
2019-05-07T11:28:25.170Z,15.55
2019-05-07T11:29:26.565Z,15.42
2019-05-07T11:30:25.338Z,15.33
2019-05-07T11:31:27.148Z,15.37
2019-05-07T11:32:26.188Z,15.44
2019-05-07T11:33:26.842Z,15.51
2019-05-07T11:34:26.567Z,15.61
2019-05-07T11:35:27.662Z,15.82
2019-05-07T11:36:24.322Z,15.9
2019-05-07T11:37:27.080Z,16.05
2019-05-07T11:38:29.070Z,16.21
2019-05-07T11:39:25.115Z,16.38
2019-05-07T11:40:25.401Z,16.6
2019-05-07T11:41:25.107Z,16.74
2019-05-07T11:42:26.531Z,16.89
2019-05-07T11:43:26.759Z,16.79
2019-05-07T11:44:25.487Z,16.81
2019-05-07T11:45:24.986Z,16.71
2019-05-07T11:46:26.948Z,16.68
2019-05-07T11:47:25.005Z,16.72
2019-05-07T11:48:26.877Z,16.78
2019-05-07T11:49:27.213Z,16.83
2019-05-07T11:50:27.327Z,16.84
2019-05-07T11:51:25.568Z,16.91
2019-05-07T11:52:25.345Z,16.94
2019-05-07T11:53:26.820Z,16.97
2019-05-07T11:54:24.812Z,16.93
2019-05-07T11:55:26.892Z,17.06
2019-05-07T11:56:26.735Z,17.26
2019-05-07T11:57:26.925Z,17.33
2019-05-07T11:58:26.507Z,17.38
2019-05-07T11:59:26.507Z,17.44
2019-05-07T12:00:26.688Z,17.16
2019-05-07T12:01:34.726Z,16.99
2019-05-07T12:02:24.878Z,16.86
2019-05-07T12:03:26.624Z,16.64
2019-05-07T12:04:27.464Z,16.51
2019-05-07T12:05:25.203Z,16.46
2019-05-07T12:06:26.263Z,16.38
2019-05-07T12:07:27.079Z,16.09
2019-05-07T12:08:48.189Z,15.88
2019-05-07T12:09:26.381Z,15.84
2019-05-07T12:10:26.771Z,15.75
2019-05-07T12:11:26.733Z,15.83
2019-05-07T12:12:26.744Z,16.02
2019-05-07T12:13:26.409Z,16.15
2019-05-07T12:14:37.416Z,16.16
2019-05-07T12:15:26.311Z,16.31
2019-05-07T12:16:27.106Z,16.32
2019-05-07T12:17:27.107Z,16.51
2019-05-07T12:18:25.203Z,16.61
2019-05-07T12:19:25.123Z,16.74
2019-05-07T12:20:26.442Z,16.78
2019-05-07T12:21:28.097Z,16.76
2019-05-07T12:22:24.802Z,16.75
2019-05-07T12:23:24.853Z,16.72
2019-05-07T12:24:27.089Z,16.75
2019-05-07T12:25:24.802Z,16.69
2019-05-07T12:26:26.728Z,16.57
2019-05-07T12:27:25.488Z,16.5
2019-05-07T12:28:26.958Z,16.51
2019-05-07T12:29:26.335Z,16.57
2019-05-07T12:30:27.090Z,16.53
2019-05-07T12:31:27.187Z,16.57
2019-05-07T12:32:26.652Z,16.72
2019-05-07T12:33:24.550Z,16.79
2019-05-07T12:34:25.343Z,16.83
2019-05-07T12:35:26.745Z,16.83
2019-05-07T12:36:25.230Z,16.86
2019-05-07T12:37:24.982Z,16.79
2019-05-07T12:38:26.760Z,16.87
2019-05-07T12:39:26.736Z,16.99
2019-05-07T12:40:24.869Z,16.96
2019-05-07T12:41:26.867Z,16.96
2019-05-07T12:42:27.088Z,16.93
2019-05-07T12:43:24.318Z,17.02
2019-05-07T12:44:26.712Z,17.04
2019-05-07T12:45:25.324Z,16.94
2019-05-07T12:46:27.092Z,16.96
2019-05-07T12:47:26.480Z,16.9
2019-05-07T12:48:26.321Z,16.83
2019-05-07T12:49:26.644Z,16.65
2019-05-07T12:50:26.704Z,16.51
2019-05-07T12:51:42.262Z,16.43
2019-05-07T12:52:25.204Z,16.36
2019-05-07T12:53:24.621Z,16.28
2019-05-07T12:54:25.160Z,16.26
2019-05-07T12:55:25.283Z,16.33
2019-05-07T12:56:24.858Z,16.42
2019-05-07T12:57:26.715Z,16.54
2019-05-07T12:58:26.640Z,16.68
2019-05-07T12:59:26.439Z,16.9
2019-05-07T13:00:25.357Z,16.91
2019-05-07T13:01:26.808Z,17.06
2019-05-07T13:02:45.946Z,17.2
2019-05-07T13:03:26.673Z,17.12
2019-05-07T13:04:26.891Z,17.09
2019-05-07T13:05:24.542Z,17.05
2019-05-07T13:06:26.805Z,16.84